Time,TemperatureF,DewpointF,PressureIn,WindDirection,WindDirectionDegrees,WindSpeedMPH,WindSpeedGustMPH,Humidity,HourlyPrecipIn,Conditions,Clouds,dailyrainin,SoftwareType,DateUTC
2013-02-01 00:00:00,49.6,39.2,30.21,NNW,331,0.0,0.0,67,0.00,,---,0.00,VWS V14.01,2013-02-01 05:00:00,
2013-02-01 00:01:00,49.6,39.2,30.21,NNW,331,0.0,0.0,67,0.00,,---,0.00,VWS V14.01,2013-02-01 05:01:00,
2013-02-01 00:06:00,49.5,39.0,30.21,NNW,330,0.0,0.0,67,0.00,,---,0.00,VWS V14.01,2013-02-01 05:06:00,
2013-02-01 00:11:00,49.5,39.0,30.21,NNW,331,0.0,0.0,67,0.00,,---,0.00,VWS V14.01,2013-02-01 05:11:00,
2013-02-01 00:16:00,49.5,38.6,30.21,NNW,330,0.0,0.0,66,0.00,,---,0.00,VWS V14.01,2013-02-01 05:16:00,
2013-02-01 00:21:00,49.5,39.0,30.21,NNW,333,0.0,0.0,67,0.00,,---,0.00,VWS V14.01,2013-02-01 05:21:00,
2013-02-01 00:26:00,49.6,38.8,30.21,NNW,333,0.0,0.0,66,0.00,,---,0.00,VWS V14.01,2013-02-01 05:26:00,
2013-02-01 00:31:00,49.5,39.0,30.21,North,353,0.0,0.0,67,0.00,,---,0.00,VWS V14.01,2013-02-01 05:31:00,
2013-02-01 00:36:00,49.6,39.2,30.21,North,353,0.0,0.0,67,0.00,,---,0.00,VWS V14.01,2013-02-01 05:36:00,
2013-02-01 00:41:00,49.6,38.8,30.21,North,1,0.0,0.0,66,0.00,,---,0.00,VWS V14.01,2013-02-01 05:41:00,
2013-02-01 00:46:00,49.5,38.6,30.21,North,0,0.0,0.0,66,0.00,,---,0.00,VWS V14.01,2013-02-01 05:46:00,
2013-02-01 00:51:00,49.3,37.6,30.21,NNW,346,0.0,2.7,64,0.00,,---,0.00,VWS V14.01,2013-02-01 05:51:00,
2013-02-01 00:56:00,49.3,37.2,30.21,NNW,346,0.0,0.0,63,0.00,,---,0.00,VWS V14.01,2013-02-01 05:56:00,
2013-02-01 01:01:00,49.5,37.4,30.21,North,353,0.0,0.0,63,0.00,,---,0.00,VWS V14.01,2013-02-01 06:01:00,
2013-02-01 01:06:00,49.3,36.8,30.21,NNE,16,2.7,3.1,62,0.00,,---,0.00,VWS V14.01,2013-02-01 06:06:00,
2013-02-01 01:11:00,49.3,36.8,30.18,North,1,2.2,2.7,62,0.00,,---,0.00,VWS V14.01,2013-02-01 06:11:00,
2013-02-01 01:16:00,49.3,35.6,30.18,North,353,2.7,3.1,59,0.00,,---,0.00,VWS V14.01,2013-02-01 06:16:00,
2013-02-01 01:21:00,49.5,37.0,30.18,North,11,2.7,3.1,62,0.00,,---,0.00,VWS V14.01,2013-02-01 06:21:00,
2013-02-01 01:26:00,49.3,35.6,30.21,North,0,2.2,4.0,59,0.00,,---,0.00,VWS V14.01,2013-02-01 06:26:00,
2013-02-01 01:31:00,49.1,34.1,30.21,North,11,2.7,3.1,56,0.00,,---,0.00,VWS V14.01,2013-02-01 06:31:00,
2013-02-01 01:36:00,49.1,33.2,30.21,NNE,14,3.6,3.6,54,0.00,,---,0.00,VWS V14.01,2013-02-01 06:36:00,
2013-02-01 01:41:00,48.9,31.6,30.21,North,357,3.1,3.1,51,0.00,,---,0.00,VWS V14.01,2013-02-01 06:41:00,
2013-02-01 01:46:00,48.9,33.0,30.21,North,0,2.2,2.7,54,0.00,,---,0.00,VWS V14.01,2013-02-01 06:46:00,
2013-02-01 01:51:00,48.7,31.4,30.21,North,3,2.7,2.7,51,0.00,,---,0.00,VWS V14.01,2013-02-01 06:51:00,
2013-02-01 01:56:00,48.7,31.4,30.21,North,2,3.6,3.6,51,0.00,,---,0.00,VWS V14.01,2013-02-01 06:56:00,
2013-02-01 02:01:00,48.7,31.4,30.21,North,2,2.7,2.7,51,0.00,,---,0.00,VWS V14.01,2013-02-01 07:01:00,
2013-02-01 02:06:00,48.6,31.3,30.21,North,4,0.0,0.0,51,0.00,,---,0.00,VWS V14.01,2013-02-01 07:06:00,
2013-02-01 02:11:00,48.4,31.1,30.21,North,3,0.0,0.0,51,0.00,,---,0.00,VWS V14.01,2013-02-01 07:11:00,
2013-02-01 02:16:00,48.2,30.0,30.21,North,10,0.0,0.0,49,0.00,,---,0.00,VWS V14.01,2013-02-01 07:16:00,
2013-02-01 02:21:00,48.2,30.0,30.21,NNE,22,3.1,3.1,49,0.00,,---,0.00,VWS V14.01,2013-02-01 07:21:00,
2013-02-01 02:26:00,48.2,30.0,30.21,NNE,18,3.1,3.1,49,0.00,,---,0.00,VWS V14.01,2013-02-01 07:26:00,
2013-02-01 02:31:00,48.0,29.8,30.21,North,7,0.0,0.0,49,0.00,,---,0.00,VWS V14.01,2013-02-01 07:31:00,
2013-02-01 02:36:00,48.0,28.8,30.21,NNE,23,2.7,3.1,47,0.00,,---,0.00,VWS V14.01,2013-02-01 07:36:00,
2013-02-01 02:41:00,48.0,28.8,30.21,North,357,0.0,2.7,47,0.00,,---,0.00,VWS V14.01,2013-02-01 07:41:00,
2013-02-01 02:46:00,48.0,28.8,30.21,North,0,2.7,2.7,47,0.00,,---,0.00,VWS V14.01,2013-02-01 07:46:00,
2013-02-01 02:51:00,47.8,28.6,30.21,North,1,3.1,3.1,47,0.00,,---,0.00,VWS V14.01,2013-02-01 07:51:00,
2013-02-01 02:56:00,47.8,28.6,30.21,North,357,2.2,3.1,47,0.00,,---,0.00,VWS V14.01,2013-02-01 07:56:00,
2013-02-01 03:01:00,47.7,28.4,30.21,North,357,4.0,4.0,47,0.00,,---,0.00,VWS V14.01,2013-02-01 08:01:00,
2013-02-01 03:06:00,47.5,28.3,30.21,North,0,3.1,3.1,47,0.00,,---,0.00,VWS V14.01,2013-02-01 08:06:00,
2013-02-01 03:11:00,47.5,28.3,30.21,NNE,19,2.2,2.2,47,0.00,,---,0.00,VWS V14.01,2013-02-01 08:11:00,
2013-02-01 03:16:00,47.5,28.3,30.21,North,7,3.1,3.1,47,0.00,,---,0.00,VWS V14.01,2013-02-01 08:16:00,
2013-02-01 03:21:00,47.3,28.1,30.21,North,6,4.0,4.0,47,0.00,,---,0.00,VWS V14.01,2013-02-01 08:21:00,
2013-02-01 03:26:00,47.3,28.1,30.21,North,3,2.7,2.7,47,0.00,,---,0.00,VWS V14.01,2013-02-01 08:26:00,
2013-02-01 03:31:00,47.1,27.9,30.21,North,357,2.7,3.1,47,0.00,,---,0.00,VWS V14.01,2013-02-01 08:31:00,
2013-02-01 03:36:00,46.9,27.8,30.21,North,11,2.7,3.6,47,0.00,,---,0.00,VWS V14.01,2013-02-01 08:36:00,
2013-02-01 03:41:00,46.8,27.6,30.21,North,353,4.0,4.0,47,0.00,,---,0.00,VWS V14.01,2013-02-01 08:41:00,
2013-02-01 03:46:00,46.8,27.6,30.21,North,10,2.7,4.0,47,0.00,,---,0.00,VWS V14.01,2013-02-01 08:46:00,
2013-02-01 03:51:00,46.9,27.8,30.21,North,357,2.7,3.6,47,0.00,,---,0.00,VWS V14.01,2013-02-01 08:51:00,
2013-02-01 03:56:00,46.8,27.6,30.21,NNE,14,3.6,3.6,47,0.00,,---,0.00,VWS V14.01,2013-02-01 08:56:00,
2013-02-01 04:01:00,46.9,27.8,30.21,North,353,4.9,4.9,47,0.00,,---,0.00,VWS V14.01,2013-02-01 09:01:00,
2013-02-01 04:06:00,47.1,27.9,30.21,NNW,337,2.2,4.0,47,0.00,,---,0.00,VWS V14.01,2013-02-01 09:06:00,
2013-02-01 04:11:00,47.1,27.9,30.21,North,1,3.6,3.6,47,0.00,,---,0.00,VWS V14.01,2013-02-01 09:11:00,
2013-02-01 04:16:00,47.3,28.1,30.21,North,3,4.9,4.9,47,0.00,,---,0.00,VWS V14.01,2013-02-01 09:16:00,
2013-02-01 04:21:00,47.3,28.1,30.21,North,0,3.6,4.0,47,0.00,,---,0.00,VWS V14.01,2013-02-01 09:21:00,
2013-02-01 04:26:00,47.3,28.1,30.21,North,357,3.1,3.1,47,0.00,,---,0.00,VWS V14.01,2013-02-01 09:26:00,
2013-02-01 04:31:00,47.3,28.1,30.21,NNE,27,3.1,3.1,47,0.00,,---,0.00,VWS V14.01,2013-02-01 09:31:00,
2013-02-01 04:36:00,47.3,28.1,30.21,North,357,2.7,3.6,47,0.00,,---,0.00,VWS V14.01,2013-02-01 09:36:00,
2013-02-01 04:41:00,47.3,28.1,30.21,North,10,4.9,4.9,47,0.00,,---,0.00,VWS V14.01,2013-02-01 09:41:00,
2013-02-01 04:46:00,47.1,27.9,30.21,North,357,3.1,3.1,47,0.00,,---,0.00,VWS V14.01,2013-02-01 09:46:00,
2013-02-01 04:51:00,47.1,27.9,30.21,North,10,2.7,2.7,47,0.00,,---,0.00,VWS V14.01,2013-02-01 09:51:00,
2013-02-01 04:56:00,47.1,27.9,30.21,North,1,3.1,3.1,47,0.00,,---,0.00,VWS V14.01,2013-02-01 09:56:00,
2013-02-01 05:01:00,47.1,27.9,30.21,NNE,16,2.7,2.7,47,0.00,,---,0.00,VWS V14.01,2013-02-01 10:01:00,
2013-02-01 05:06:00,47.1,27.9,30.21,North,353,3.1,5.8,47,0.00,,---,0.00,VWS V14.01,2013-02-01 10:06:00,
2013-02-01 05:11:00,47.3,28.1,30.21,North,3,3.6,5.4,47,0.00,,---,0.00,VWS V14.01,2013-02-01 10:11:00,
2013-02-01 05:16:00,47.3,28.1,30.21,North,353,2.7,3.6,47,0.00,,---,0.00,VWS V14.01,2013-02-01 10:16:00,
2013-02-01 05:21:00,47.5,28.3,30.21,North,353,3.1,3.1,47,0.00,,---,0.00,VWS V14.01,2013-02-01 10:21:00,
2013-02-01 05:26:00,47.5,28.3,30.24,NNE,27,2.2,4.0,47,0.00,,---,0.00,VWS V14.01,2013-02-01 10:26:00,
2013-02-01 05:31:00,47.3,28.1,30.24,North,4,2.7,2.7,47,0.00,,---,0.00,VWS V14.01,2013-02-01 10:31:00,
2013-02-01 05:36:00,47.3,28.1,30.24,North,2,3.1,3.1,47,0.00,,---,0.00,VWS V14.01,2013-02-01 10:36:00,
2013-02-01 05:41:00,47.1,27.9,30.24,North,6,3.1,3.1,47,0.00,,---,0.00,VWS V14.01,2013-02-01 10:41:00,
2013-02-01 05:46:00,47.1,27.9,30.24,NNW,341,2.7,3.6,47,0.00,,---,0.00,VWS V14.01,2013-02-01 10:46:00,
2013-02-01 05:51:00,47.1,27.9,30.24,North,353,2.7,2.7,47,0.00,,---,0.00,VWS V14.01,2013-02-01 10:51:00,
2013-02-01 05:56:00,47.1,27.9,30.24,North,6,2.2,2.2,47,0.00,,---,0.00,VWS V14.01,2013-02-01 10:56:00,
2013-02-01 06:01:00,46.9,27.8,30.24,North,1,2.7,2.7,47,0.00,,---,0.00,VWS V14.01,2013-02-01 11:01:00,
2013-02-01 06:06:00,46.9,27.8,30.24,NNE,26,4.0,4.0,47,0.00,,---,0.00,VWS V14.01,2013-02-01 11:06:00,
2013-02-01 06:11:00,46.9,27.8,30.24,North,9,2.7,2.7,47,0.00,,---,0.00,VWS V14.01,2013-02-01 11:11:00,
2013-02-01 06:16:00,46.8,27.6,30.24,North,357,3.1,3.1,47,0.00,,---,0.00,VWS V14.01,2013-02-01 11:16:00,
2013-02-01 06:21:00,46.8,27.6,30.24,North,10,3.1,5.4,47,0.00,,---,0.00,VWS V14.01,2013-02-01 11:21:00,
2013-02-01 06:26:00,46.9,27.8,30.24,North,6,2.2,3.1,47,0.00,,---,0.00,VWS V14.01,2013-02-01 11:26:00,
2013-02-01 06:31:00,46.9,27.8,30.24,North,1,2.2,2.2,47,0.00,,---,0.00,VWS V14.01,2013-02-01 11:31:00,
2013-02-01 06:36:00,46.8,27.6,30.24,NNE,19,2.2,2.2,47,0.00,,---,0.00,VWS V14.01,2013-02-01 11:36:00,
2013-02-01 06:41:00,46.8,27.6,30.27,North,1,2.7,2.7,47,0.00,,---,0.00,VWS V14.01,2013-02-01 11:41:00,
2013-02-01 06:46:00,46.8,27.6,30.27,North,5,2.7,2.7,47,0.00,,---,0.00,VWS V14.01,2013-02-01 11:46:00,
2013-02-01 06:51:00,46.8,27.6,30.27,North,357,3.1,3.1,47,0.00,,---,0.00,VWS V14.01,2013-02-01 11:51:00,
2013-02-01 06:56:00,46.8,26.0,30.27,NNE,16,2.7,2.7,44,0.00,,---,0.00,VWS V14.01,2013-02-01 11:56:00,
2013-02-01 07:01:00,46.8,27.6,30.27,North,0,3.1,3.1,47,0.00,,---,0.00,VWS V14.01,2013-02-01 12:01:00,
2013-02-01 07:06:00,46.8,26.0,30.27,North,6,2.7,3.6,44,0.00,,---,0.00,VWS V14.01,2013-02-01 12:06:00,
2013-02-01 07:11:00,46.8,26.0,30.27,North,353,4.0,4.0,44,0.00,,---,0.00,VWS V14.01,2013-02-01 12:11:00,
2013-02-01 07:16:00,46.9,26.2,30.27,NNW,346,3.1,3.1,44,0.00,,---,0.00,VWS V14.01,2013-02-01 12:16:00,
2013-02-01 07:21:00,46.9,26.2,30.27,North,5,2.7,3.1,44,0.00,,---,0.00,VWS V14.01,2013-02-01 12:21:00,
2013-02-01 07:26:00,46.9,26.2,30.27,North,1,3.1,3.6,44,0.00,,---,0.00,VWS V14.01,2013-02-01 12:26:00,
2013-02-01 07:31:00,46.8,26.0,30.27,North,9,3.1,3.6,44,0.00,,---,0.00,VWS V14.01,2013-02-01 12:31:00,
2013-02-01 07:36:00,46.9,26.2,30.27,North,357,2.7,2.7,44,0.00,,---,0.00,VWS V14.01,2013-02-01 12:36:00,
2013-02-01 07:41:00,47.1,26.3,30.27,North,1,3.6,3.6,44,0.00,,---,0.00,VWS V14.01,2013-02-01 12:41:00,
2013-02-01 07:46:00,47.1,26.3,30.27,North,353,4.0,4.0,44,0.00,,---,0.00,VWS V14.01,2013-02-01 12:46:00,
2013-02-01 07:51:00,47.3,26.5,30.27,NNW,337,4.0,4.0,44,0.00,,---,0.00,VWS V14.01,2013-02-01 12:51:00,
2013-02-01 07:56:00,47.5,26.7,30.30,NNW,339,4.9,4.9,44,0.00,,---,0.00,VWS V14.01,2013-02-01 12:56:00,
2013-02-01 08:01:00,47.7,26.8,30.30,North,2,3.1,3.1,44,0.00,,---,0.00,VWS V14.01,2013-02-01 13:01:00,
2013-02-01 08:06:00,47.8,27.0,30.30,NNE,19,3.1,4.0,44,0.00,,---,0.00,VWS V14.01,2013-02-01 13:06:00,
2013-02-01 08:11:00,48.0,27.2,30.30,North,357,3.6,3.6,44,0.00,,---,0.00,VWS V14.01,2013-02-01 13:11:00,
2013-02-01 08:16:00,48.4,27.5,30.30,North,3,3.6,3.6,44,0.00,,---,0.00,VWS V14.01,2013-02-01 13:16:00,
2013-02-01 08:21:00,48.7,27.8,30.30,NNW,338,4.0,4.9,44,0.00,,---,0.00,VWS V14.01,2013-02-01 13:21:00,
2013-02-01 08:26:00,49.1,29.2,30.30,North,353,2.7,2.7,46,0.00,,---,0.00,VWS V14.01,2013-02-01 13:26:00,
2013-02-01 08:31:00,49.6,28.6,30.30,NNE,31,3.6,6.3,44,0.00,,---,0.00,VWS V14.01,2013-02-01 13:31:00,
2013-02-01 08:36:00,50.2,30.2,30.30,NNE,15,4.0,4.0,46,0.00,,---,0.00,VWS V14.01,2013-02-01 13:36:00,
2013-02-01 08:41:00,50.7,30.7,30.30,North,357,4.0,4.0,46,0.00,,---,0.00,VWS V14.01,2013-02-01 13:41:00,
2013-02-01 08:46:00,51.1,31.0,30.30,North,353,5.8,5.8,46,0.00,,---,0.00,VWS V14.01,2013-02-01 13:46:00,
2013-02-01 08:51:00,51.6,31.5,30.30,North,357,3.6,3.6,46,0.00,,---,0.00,VWS V14.01,2013-02-01 13:51:00,
2013-02-01 08:56:00,52.0,31.9,30.30,North,353,3.6,8.3,46,0.00,,---,0.00,VWS V14.01,2013-02-01 13:56:00,
2013-02-01 09:01:00,52.9,32.7,30.30,North,353,4.9,4.9,46,0.00,,---,0.00,VWS V14.01,2013-02-01 14:01:00,
2013-02-01 09:06:00,53.4,33.2,30.30,North,9,2.7,2.7,46,0.00,,---,0.00,VWS V14.01,2013-02-01 14:06:00,
2013-02-01 09:11:00,54.1,33.3,30.30,NE,50,6.3,6.3,45,0.00,,---,0.00,VWS V14.01,2013-02-01 14:11:00,
2013-02-01 09:16:00,54.7,32.6,30.30,North,5,3.1,5.4,43,0.00,,---,0.00,VWS V14.01,2013-02-01 14:16:00,
2013-02-01 09:21:00,55.2,33.1,30.30,North,353,6.3,6.3,43,0.00,,---,0.00,VWS V14.01,2013-02-01 14:21:00,
2013-02-01 09:26:00,55.9,33.2,30.33,North,357,8.3,8.3,42,0.00,,---,0.00,VWS V14.01,2013-02-01 14:26:00,
2013-02-01 09:31:00,56.3,33.5,30.33,NNE,18,4.9,5.4,42,0.00,,---,0.00,VWS V14.01,2013-02-01 14:31:00,
2013-02-01 09:36:00,56.8,34.0,30.33,NNE,30,4.0,5.8,42,0.00,,---,0.00,VWS V14.01,2013-02-01 14:36:00,
2013-02-01 09:41:00,57.4,34.5,30.33,North,5,3.6,3.6,42,0.00,,---,0.00,VWS V14.01,2013-02-01 14:41:00,
2013-02-01 09:46:00,57.9,35.0,30.33,North,357,5.4,5.4,42,0.00,,---,0.00,VWS V14.01,2013-02-01 14:46:00,
2013-02-01 09:51:00,58.3,35.3,30.33,North,349,4.9,4.9,42,0.00,,---,0.00,VWS V14.01,2013-02-01 14:51:00,
2013-02-01 09:56:00,58.6,35.6,30.33,North,353,3.6,4.0,42,0.00,,---,0.00,VWS V14.01,2013-02-01 14:56:00,
2013-02-01 10:01:00,59.2,36.1,30.33,North,353,4.9,4.9,42,0.00,,---,0.00,VWS V14.01,2013-02-01 15:01:00,
2013-02-01 10:06:00,59.4,36.3,30.33,NW,317,6.3,6.3,42,0.00,,---,0.00,VWS V14.01,2013-02-01 15:06:00,
2013-02-01 10:11:00,59.4,36.3,30.33,WNW,302,5.4,5.4,42,0.00,,---,0.00,VWS V14.01,2013-02-01 15:11:00,
2013-02-01 10:16:00,59.4,36.3,30.33,North,3,5.4,5.4,42,0.00,,---,0.00,VWS V14.01,2013-02-01 15:16:00,
2013-02-01 10:21:00,59.4,36.3,30.33,North,6,3.6,5.4,42,0.00,,---,0.00,VWS V14.01,2013-02-01 15:21:00,
2013-02-01 10:26:00,59.4,36.3,30.33,NNE,22,2.7,2.7,42,0.00,,---,0.00,VWS V14.01,2013-02-01 15:26:00,
2013-02-01 10:31:00,59.4,36.3,30.33,North,357,5.8,5.8,42,0.00,,---,0.00,VWS V14.01,2013-02-01 15:31:00,
2013-02-01 10:36:00,59.4,36.3,30.33,NNW,338,3.6,5.4,42,0.00,,---,0.00,VWS V14.01,2013-02-01 15:36:00,
2013-02-01 10:41:00,59.4,36.3,30.33,WNW,303,4.0,4.0,42,0.00,,---,0.00,VWS V14.01,2013-02-01 15:41:00,
2013-02-01 10:46:00,59.4,36.3,30.33,NNE,28,8.1,8.1,42,0.00,,---,0.00,VWS V14.01,2013-02-01 15:46:00,
2013-02-01 10:51:00,59.4,36.3,30.33,NNE,20,5.4,5.4,42,0.00,,---,0.00,VWS V14.01,2013-02-01 15:51:00,
2013-02-01 10:56:00,59.4,36.3,30.33,North,353,6.7,6.7,42,0.00,,---,0.00,VWS V14.01,2013-02-01 15:56:00,
2013-02-01 11:01:00,59.4,36.3,30.33,North,353,3.6,3.6,42,0.00,,---,0.00,VWS V14.01,2013-02-01 16:01:00,
2013-02-01 11:06:00,59.4,36.3,30.33,NE,34,5.4,5.4,42,0.00,,---,0.00,VWS V14.01,2013-02-01 16:06:00,
2013-02-01 11:11:00,59.4,36.3,30.33,NNW,345,5.4,5.4,42,0.00,,---,0.00,VWS V14.01,2013-02-01 16:11:00,
2013-02-01 11:16:00,59.4,36.3,30.33,ENE,59,3.1,4.0,42,0.00,,---,0.00,VWS V14.01,2013-02-01 16:16:00,
2013-02-01 11:21:00,59.4,36.3,30.33,North,357,3.6,4.0,42,0.00,,---,0.00,VWS V14.01,2013-02-01 16:21:00,
2013-02-01 11:26:00,59.4,36.3,30.33,North,357,4.0,4.9,42,0.00,,---,0.00,VWS V14.01,2013-02-01 16:26:00,
2013-02-01 11:31:00,59.4,36.3,30.33,North,353,5.8,6.3,42,0.00,,---,0.00,VWS V14.01,2013-02-01 16:31:00,
2013-02-01 11:36:00,59.4,36.3,30.33,NW,317,2.7,5.4,42,0.00,,---,0.00,VWS V14.01,2013-02-01 16:36:00,
2013-02-01 11:41:00,59.4,36.3,30.33,NE,45,5.8,7.6,42,0.00,,---,0.00,VWS V14.01,2013-02-01 16:41:00,
2013-02-01 11:46:00,63.1,39.1,30.33,NE,35,5.8,5.8,41,0.00,,---,0.00,VWS V14.01,2013-02-01 16:46:00,
2013-02-01 11:51:00,63.5,39.4,30.33,North,357,3.6,3.6,41,0.00,,---,0.00,VWS V14.01,2013-02-01 16:51:00,
2013-02-01 11:56:00,63.9,39.7,30.33,NW,319,2.7,3.6,41,0.00,,---,0.00,VWS V14.01,2013-02-01 16:56:00,
2013-02-01 12:01:00,64.4,39.6,30.33,NNW,346,3.6,3.6,40,0.00,,---,0.00,VWS V14.01,2013-02-01 17:01:00,
2013-02-01 12:06:00,64.8,39.9,30.33,NNE,12,4.0,5.4,40,0.00,,---,0.00,VWS V14.01,2013-02-01 17:06:00,
2013-02-01 12:11:00,64.9,40.1,30.33,NNE,26,4.0,4.0,40,0.00,,---,0.00,VWS V14.01,2013-02-01 17:11:00,
2013-02-01 12:16:00,64.9,40.1,30.33,North,357,4.0,4.0,40,0.00,,---,0.00,VWS V14.01,2013-02-01 17:16:00,
2013-02-01 12:21:00,64.9,40.1,30.33,NE,50,4.0,4.0,40,0.00,,---,0.00,VWS V14.01,2013-02-01 17:21:00,
2013-02-01 12:26:00,65.1,40.2,30.30,NNW,333,4.9,4.9,40,0.00,,---,0.00,VWS V14.01,2013-02-01 17:26:00,
2013-02-01 12:31:00,64.9,40.1,30.30,North,353,5.8,5.8,40,0.00,,---,0.00,VWS V14.01,2013-02-01 17:31:00,
2013-02-01 12:36:00,64.8,39.9,30.30,North,350,2.7,2.7,40,0.00,,---,0.00,VWS V14.01,2013-02-01 17:36:00,
2013-02-01 12:41:00,65.3,40.4,30.30,NNW,331,3.1,4.9,40,0.00,,---,0.00,VWS V14.01,2013-02-01 17:41:00,
2013-02-01 12:46:00,65.7,40.7,30.30,NW,321,3.6,4.9,40,0.00,,---,0.00,VWS V14.01,2013-02-01 17:46:00,
2013-02-01 12:51:00,66.0,41.0,30.30,NNW,337,3.1,5.8,40,0.00,,---,0.00,VWS V14.01,2013-02-01 17:51:00,
2013-02-01 12:56:00,66.0,41.0,30.30,NE,38,5.4,5.4,40,0.00,,---,0.00,VWS V14.01,2013-02-01 17:56:00,
2013-02-01 13:01:00,66.2,41.2,30.30,North,353,4.0,4.0,40,0.00,,---,0.00,VWS V14.01,2013-02-01 18:01:00,
2013-02-01 13:06:00,67.5,42.3,30.30,NE,34,4.0,4.0,40,0.00,,---,0.00,VWS V14.01,2013-02-01 18:06:00,
2013-02-01 13:11:00,68.2,43.0,30.30,North,357,3.6,3.6,40,0.00,,---,0.00,VWS V14.01,2013-02-01 18:11:00,
2013-02-01 13:16:00,69.3,43.9,30.30,West,267,6.3,6.3,40,0.00,,---,0.00,VWS V14.01,2013-02-01 18:16:00,
2013-02-01 13:21:00,69.8,43.8,30.30,NNE,14,3.6,4.0,39,0.00,,---,0.00,VWS V14.01,2013-02-01 18:21:00,
2013-02-01 13:26:00,69.8,43.8,30.27,North,2,3.1,5.8,39,0.00,,---,0.00,VWS V14.01,2013-02-01 18:26:00,
2013-02-01 13:31:00,69.4,44.1,30.27,North,353,4.0,4.0,40,0.00,,---,0.00,VWS V14.01,2013-02-01 18:31:00,
2013-02-01 13:36:00,67.5,42.3,30.27,NW,322,5.4,5.4,40,0.00,,---,0.00,VWS V14.01,2013-02-01 18:36:00,
2013-02-01 13:41:00,66.6,41.5,30.27,North,4,0.0,8.3,40,0.00,,---,0.00,VWS V14.01,2013-02-01 18:41:00,
2013-02-01 13:46:00,66.7,41.7,30.27,North,353,4.9,4.9,40,0.00,,---,0.00,VWS V14.01,2013-02-01 18:46:00,
2013-02-01 13:51:00,66.4,41.3,30.27,NW,311,4.0,4.9,40,0.00,,---,0.00,VWS V14.01,2013-02-01 18:51:00,
2013-02-01 13:56:00,66.6,41.5,30.27,NW,312,5.8,5.8,40,0.00,,---,0.00,VWS V14.01,2013-02-01 18:56:00,
2013-02-01 14:01:00,66.7,41.7,30.27,NNW,346,3.1,6.3,40,0.00,,---,0.00,VWS V14.01,2013-02-01 19:01:00,
2013-02-01 14:06:00,66.0,41.0,30.27,NW,316,5.4,5.4,40,0.00,,---,0.00,VWS V14.01,2013-02-01 19:06:00,
2013-02-01 14:11:00,66.0,41.0,30.27,NNW,344,3.6,5.8,40,0.00,,---,0.00,VWS V14.01,2013-02-01 19:11:00,
2013-02-01 14:16:00,65.7,40.7,30.27,North,5,2.7,6.3,40,0.00,,---,0.00,VWS V14.01,2013-02-01 19:16:00,
2013-02-01 14:21:00,64.9,40.1,30.27,North,4,5.4,5.4,40,0.00,,---,0.00,VWS V14.01,2013-02-01 19:21:00,
2013-02-01 14:26:00,64.6,39.7,30.27,North,2,3.6,4.0,40,0.00,,---,0.00,VWS V14.01,2013-02-01 19:26:00,
2013-02-01 14:31:00,65.1,40.2,30.27,North,4,6.3,6.3,40,0.00,,---,0.00,VWS V14.01,2013-02-01 19:31:00,
2013-02-01 14:36:00,64.4,39.6,30.27,NNW,337,5.4,5.8,40,0.00,,---,0.00,VWS V14.01,2013-02-01 19:36:00,
2013-02-01 14:41:00,64.2,40.0,30.24,NNW,335,6.3,6.3,41,0.00,,---,0.00,VWS V14.01,2013-02-01 19:41:00,
2013-02-01 14:46:00,64.0,39.9,30.24,North,6,3.1,4.0,41,0.00,,---,0.00,VWS V14.01,2013-02-01 19:46:00,
2013-02-01 14:51:00,64.4,39.6,30.24,North,349,2.7,3.6,40,0.00,,---,0.00,VWS V14.01,2013-02-01 19:51:00,
2013-02-01 14:56:00,64.6,39.7,30.27,NNW,332,5.8,5.8,40,0.00,,---,0.00,VWS V14.01,2013-02-01 19:56:00,
2013-02-01 15:01:00,64.8,39.9,30.27,North,4,2.2,4.0,40,0.00,,---,0.00,VWS V14.01,2013-02-01 20:01:00,
2013-02-01 15:06:00,64.8,39.9,30.27,NNW,327,3.6,5.8,40,0.00,,---,0.00,VWS V14.01,2013-02-01 20:06:00,
2013-02-01 15:11:00,64.8,39.9,30.24,NNW,343,5.4,5.4,40,0.00,,---,0.00,VWS V14.01,2013-02-01 20:11:00,
2013-02-01 15:16:00,64.6,39.7,30.24,North,357,3.6,4.9,40,0.00,,---,0.00,VWS V14.01,2013-02-01 20:16:00,
2013-02-01 15:21:00,65.5,40.5,30.24,NNW,340,3.1,4.0,40,0.00,,---,0.00,VWS V14.01,2013-02-01 20:21:00,
2013-02-01 15:26:00,65.8,40.9,30.24,NW,324,3.1,5.8,40,0.00,,---,0.00,VWS V14.01,2013-02-01 20:26:00,
2013-02-01 15:31:00,66.6,41.5,30.24,SW,236,4.0,10.1,40,0.00,,---,0.00,VWS V14.01,2013-02-01 20:31:00,
2013-02-01 15:36:00,66.0,41.0,30.24,North,357,4.5,4.5,40,0.00,,---,0.00,VWS V14.01,2013-02-01 20:36:00,
2013-02-01 15:40:00,65.1,40.2,30.24,North,2,2.7,4.0,40,0.00,,---,0.00,VWS V14.01,2013-02-01 20:40:00,
2013-02-01 15:45:00,64.8,39.9,30.24,NNW,334,3.6,4.9,40,0.00,,---,0.00,VWS V14.01,2013-02-01 20:45:00,
2013-02-01 15:51:00,65.1,40.2,30.24,West,278,2.7,2.7,40,0.00,,---,0.00,VWS V14.01,2013-02-01 20:51:00,
2013-02-01 15:55:00,65.7,40.7,30.24,North,6,2.7,3.6,40,0.00,,---,0.00,VWS V14.01,2013-02-01 20:55:00,
2013-02-01 16:00:00,65.1,40.2,30.24,West,265,4.0,4.0,40,0.00,,---,0.00,VWS V14.01,2013-02-01 21:00:00,
2013-02-01 16:06:00,64.8,39.9,30.24,NNW,334,3.1,3.1,40,0.00,,---,0.00,VWS V14.01,2013-02-01 21:06:00,
2013-02-01 16:11:00,64.0,39.9,30.24,NNW,339,2.7,4.0,41,0.00,,---,0.00,VWS V14.01,2013-02-01 21:11:00,
2013-02-01 16:16:00,63.5,39.4,30.24,North,357,2.7,3.6,41,0.00,,---,0.00,VWS V14.01,2013-02-01 21:16:00,
2013-02-01 16:21:00,63.0,38.9,30.24,North,11,3.1,3.1,41,0.00,,---,0.00,VWS V14.01,2013-02-01 21:21:00,
2013-02-01 16:25:00,63.5,39.4,30.24,NW,304,4.0,5.4,41,0.00,,---,0.00,VWS V14.01,2013-02-01 21:25:00,
2013-02-01 16:30:00,63.9,39.7,30.24,North,357,3.1,5.4,41,0.00,,---,0.00,VWS V14.01,2013-02-01 21:30:00,
2013-02-01 16:35:00,63.9,39.7,30.24,NW,304,2.7,4.0,41,0.00,,---,0.00,VWS V14.01,2013-02-01 21:35:00,
2013-02-01 16:40:00,63.9,39.7,30.24,NW,310,0.0,2.2,41,0.00,,---,0.00,VWS V14.01,2013-02-01 21:40:00,
2013-02-01 16:45:00,63.5,39.4,30.24,WNW,286,2.7,2.7,41,0.00,,---,0.00,VWS V14.01,2013-02-01 21:45:00,
2013-02-01 16:50:00,63.5,39.4,30.24,WNW,288,4.0,4.0,41,0.00,,---,0.00,VWS V14.01,2013-02-01 21:50:00,
2013-02-01 16:55:00,63.3,39.2,30.24,West,269,3.1,4.0,41,0.00,,---,0.00,VWS V14.01,2013-02-01 21:55:00,
2013-02-01 17:00:00,63.1,39.1,30.24,NW,307,3.6,3.6,41,0.00,,---,0.00,VWS V14.01,2013-02-01 22:00:00,
2013-02-01 17:05:00,62.6,38.6,30.24,NW,320,2.7,2.7,41,0.00,,---,0.00,VWS V14.01,2013-02-01 22:05:00,
2013-02-01 17:10:00,62.1,38.1,30.24,WNW,291,2.2,4.0,41,0.00,,---,0.00,VWS V14.01,2013-02-01 22:10:00,
2013-02-01 17:15:00,61.7,37.8,30.24,North,357,0.0,3.6,41,0.00,,---,0.00,VWS V14.01,2013-02-01 22:15:00,
2013-02-01 17:20:00,61.3,37.5,30.24,West,264,2.2,2.7,41,0.00,,---,0.00,VWS V14.01,2013-02-01 22:20:00,
2013-02-01 17:25:00,61.2,37.3,30.24,West,259,0.0,2.7,41,0.00,,---,0.00,VWS V14.01,2013-02-01 22:25:00,
2013-02-01 17:30:00,61.2,37.3,30.24,NW,316,0.0,0.0,41,0.00,,---,0.00,VWS V14.01,2013-02-01 22:30:00,
2013-02-01 17:35:00,61.0,37.1,30.24,NW,305,0.0,0.0,41,0.00,,---,0.00,VWS V14.01,2013-02-01 22:35:00,
2013-02-01 17:40:00,60.6,37.4,30.24,West,281,0.0,4.0,42,0.00,,---,0.00,VWS V14.01,2013-02-01 22:40:00,
2013-02-01 17:45:00,60.6,37.4,30.24,West,281,0.0,0.0,42,0.00,,---,0.00,VWS V14.01,2013-02-01 22:45:00,
2013-02-01 17:50:00,60.6,37.4,30.24,WSW,258,0.0,0.0,42,0.00,,---,0.00,VWS V14.01,2013-02-01 22:50:00,
2013-02-01 17:55:00,60.6,37.4,30.24,WNW,299,0.0,0.0,42,0.00,,---,0.00,VWS V14.01,2013-02-01 22:55:00,
2013-02-01 18:00:00,60.4,37.3,30.24,West,281,0.0,0.0,42,0.00,,---,0.00,VWS V14.01,2013-02-01 23:00:00,
2013-02-01 18:05:00,60.4,37.3,30.24,West,280,0.0,2.2,42,0.00,,---,0.00,VWS V14.01,2013-02-01 23:05:00,
2013-02-01 18:10:00,60.3,37.1,30.24,NW,310,0.0,0.0,42,0.00,,---,0.00,VWS V14.01,2013-02-01 23:10:00,
2013-02-01 18:15:00,60.1,36.9,30.24,WNW,285,0.0,0.0,42,0.00,,---,0.00,VWS V14.01,2013-02-01 23:15:00,
2013-02-01 18:20:00,59.7,36.6,30.24,WNW,289,0.0,2.7,42,0.00,,---,0.00,VWS V14.01,2013-02-01 23:20:00,
2013-02-01 18:25:00,59.5,36.5,30.24,WNW,289,0.0,0.0,42,0.00,,---,0.00,VWS V14.01,2013-02-01 23:25:00,
2013-02-01 18:30:00,59.2,36.1,30.24,WNW,289,0.0,0.0,42,0.00,,---,0.00,VWS V14.01,2013-02-01 23:30:00,
2013-02-01 18:35:00,59.0,36.0,30.24,WNW,289,0.0,0.0,42,0.00,,---,0.00,VWS V14.01,2013-02-01 23:35:00,
2013-02-01 18:40:00,58.8,35.8,30.24,WNW,289,0.0,0.0,42,0.00,,---,0.00,VWS V14.01,2013-02-01 23:40:00,
2013-02-01 18:45:00,58.5,35.5,30.24,WNW,289,0.0,0.0,42,0.00,,---,0.00,VWS V14.01,2013-02-01 23:45:00,
2013-02-01 18:50:00,58.1,35.2,30.24,WNW,289,0.0,0.0,42,0.00,,---,0.00,VWS V14.01,2013-02-01 23:50:00,
2013-02-01 18:55:00,57.7,34.8,30.24,WNW,288,0.0,0.0,42,0.00,,---,0.00,VWS V14.01,2013-02-01 23:55:00,
2013-02-01 19:00:00,57.6,34.7,30.24,WNW,289,0.0,0.0,42,0.00,,---,0.00,VWS V14.01,2013-02-02 00:00:00,
2013-02-01 19:05:00,57.0,34.2,30.24,WNW,289,0.0,0.0,42,0.00,,---,0.00,VWS V14.01,2013-02-02 00:05:00,
2013-02-01 19:10:00,56.5,33.7,30.24,WNW,289,0.0,0.0,42,0.00,,---,0.00,VWS V14.01,2013-02-02 00:10:00,
2013-02-01 19:15:00,56.1,33.4,30.24,WNW,288,0.0,0.0,42,0.00,,---,0.00,VWS V14.01,2013-02-02 00:15:00,
2013-02-01 19:20:00,55.9,34.9,30.24,WNW,288,0.0,0.0,45,0.00,,---,0.00,VWS V14.01,2013-02-02 00:20:00,
2013-02-01 19:25:00,55.8,34.8,30.24,WNW,287,0.0,0.0,45,0.00,,---,0.00,VWS V14.01,2013-02-02 00:25:00,
2013-02-01 19:30:00,55.6,34.6,30.24,WNW,288,0.0,0.0,45,0.00,,---,0.00,VWS V14.01,2013-02-02 00:30:00,
2013-02-01 19:35:00,55.6,34.6,30.24,WNW,287,0.0,0.0,45,0.00,,---,0.00,VWS V14.01,2013-02-02 00:35:00,
2013-02-01 19:40:00,55.4,34.4,30.24,WNW,287,0.0,0.0,45,0.00,,---,0.00,VWS V14.01,2013-02-02 00:40:00,
2013-02-01 19:45:00,55.2,34.3,30.24,WNW,287,0.0,0.0,45,0.00,,---,0.00,VWS V14.01,2013-02-02 00:45:00,
2013-02-01 19:50:00,55.0,34.1,30.24,WNW,287,0.0,0.0,45,0.00,,---,0.00,VWS V14.01,2013-02-02 00:50:00,
2013-02-01 19:55:00,55.0,34.1,30.24,WNW,288,0.0,0.0,45,0.00,,---,0.00,VWS V14.01,2013-02-02 00:55:00,
2013-02-01 20:00:00,55.0,34.1,30.24,WNW,287,0.0,0.0,45,0.00,,---,0.00,VWS V14.01,2013-02-02 01:00:00,
2013-02-01 20:05:00,54.9,33.9,30.24,West,272,0.0,0.0,45,0.00,,---,0.00,VWS V14.01,2013-02-02 01:05:00,
2013-02-01 20:10:00,54.9,33.9,30.24,WNW,291,0.0,0.0,45,0.00,,---,0.00,VWS V14.01,2013-02-02 01:10:00,
2013-02-01 20:15:00,54.9,33.9,30.24,West,278,0.0,0.0,45,0.00,,---,0.00,VWS V14.01,2013-02-02 01:15:00,
2013-02-01 20:20:00,54.7,33.8,30.24,West,266,0.0,0.0,45,0.00,,---,0.00,VWS V14.01,2013-02-02 01:20:00,
2013-02-01 20:25:00,54.7,33.8,30.24,West,277,0.0,0.0,45,0.00,,---,0.00,VWS V14.01,2013-02-02 01:25:00,
2013-02-01 20:30:00,54.5,33.6,30.24,West,277,0.0,0.0,45,0.00,,---,0.00,VWS V14.01,2013-02-02 01:30:00,
2013-02-01 20:35:00,54.5,33.6,30.24,West,277,0.0,0.0,45,0.00,,---,0.00,VWS V14.01,2013-02-02 01:35:00,
2013-02-01 20:40:00,54.5,33.6,30.24,West,277,0.0,0.0,45,0.00,,---,0.00,VWS V14.01,2013-02-02 01:40:00,
2013-02-01 20:45:00,54.3,33.5,30.24,West,277,0.0,0.0,45,0.00,,---,0.00,VWS V14.01,2013-02-02 01:45:00,
2013-02-01 20:50:00,54.1,33.3,30.24,West,278,0.0,0.0,45,0.00,,---,0.00,VWS V14.01,2013-02-02 01:50:00,
2013-02-01 20:55:00,54.0,33.1,30.24,West,278,0.0,0.0,45,0.00,,---,0.00,VWS V14.01,2013-02-02 01:55:00,
2013-02-01 21:00:00,53.8,34.6,30.24,West,271,0.0,0.0,48,0.00,,---,0.00,VWS V14.01,2013-02-02 02:00:00,
2013-02-01 21:05:00,54.0,34.7,30.24,WNW,284,0.0,2.7,48,0.00,,---,0.00,VWS V14.01,2013-02-02 02:05:00,
2013-02-01 21:10:00,54.1,34.9,30.24,WNW,301,0.0,5.4,48,0.00,,---,0.00,VWS V14.01,2013-02-02 02:10:00,
2013-02-01 21:15:00,54.3,35.1,30.24,WNW,283,0.0,0.0,48,0.00,,---,0.00,VWS V14.01,2013-02-02 02:15:00,
2013-02-01 21:20:00,54.3,35.1,30.24,WNW,286,2.2,3.1,48,0.00,,---,0.00,VWS V14.01,2013-02-02 02:20:00,
2013-02-01 21:25:00,54.3,35.1,30.27,WNW,298,0.0,2.7,48,0.00,,---,0.00,VWS V14.01,2013-02-02 02:25:00,
2013-02-01 21:30:00,54.3,35.1,30.27,West,268,3.6,3.6,48,0.00,,---,0.00,VWS V14.01,2013-02-02 02:30:00,
2013-02-01 21:35:00,54.3,35.1,30.27,NW,307,2.7,3.1,48,0.00,,---,0.00,VWS V14.01,2013-02-02 02:35:00,
2013-02-01 21:40:00,54.3,35.1,30.27,WNW,290,2.7,2.7,48,0.00,,---,0.00,VWS V14.01,2013-02-02 02:40:00,
2013-02-01 21:45:00,54.3,35.1,30.27,West,266,2.7,3.6,48,0.00,,---,0.00,VWS V14.01,2013-02-02 02:45:00,
2013-02-01 21:50:00,54.1,34.9,30.27,WNW,288,0.0,0.0,48,0.00,,---,0.00,VWS V14.01,2013-02-02 02:50:00,
2013-02-01 21:55:00,54.1,34.9,30.27,WNW,283,2.7,2.7,48,0.00,,---,0.00,VWS V14.01,2013-02-02 02:55:00,
2013-02-01 22:00:00,54.1,34.9,30.27,NW,314,3.6,3.6,48,0.00,,---,0.00,VWS V14.01,2013-02-02 03:00:00,
2013-02-01 22:05:00,54.1,34.9,30.27,NW,304,0.0,0.0,48,0.00,,---,0.00,VWS V14.01,2013-02-02 03:05:00,
2013-02-01 22:10:00,54.1,34.9,30.27,WNW,291,2.2,2.2,48,0.00,,---,0.00,VWS V14.01,2013-02-02 03:10:00,
2013-02-01 22:15:00,54.3,35.1,30.27,WNW,284,0.0,0.0,48,0.00,,---,0.00,VWS V14.01,2013-02-02 03:15:00,
2013-02-01 22:20:00,54.3,35.1,30.27,WNW,292,0.0,0.0,48,0.00,,---,0.00,VWS V14.01,2013-02-02 03:20:00,
2013-02-01 22:25:00,54.3,35.1,30.27,WNW,300,0.0,3.1,48,0.00,,---,0.00,VWS V14.01,2013-02-02 03:25:00,
2013-02-01 22:30:00,54.3,36.1,30.27,NW,304,0.0,3.1,50,0.00,,---,0.00,VWS V14.01,2013-02-02 03:30:00,
2013-02-01 22:35:00,54.3,36.1,30.27,WNW,300,0.0,0.0,50,0.00,,---,0.00,VWS V14.01,2013-02-02 03:35:00,
2013-02-01 22:40:00,54.3,36.1,30.27,WNW,301,2.7,2.7,50,0.00,,---,0.00,VWS V14.01,2013-02-02 03:40:00,
2013-02-01 22:45:00,54.3,36.1,30.27,WNW,295,0.0,0.0,50,0.00,,---,0.00,VWS V14.01,2013-02-02 03:45:00,
2013-02-01 22:50:00,54.3,36.1,30.27,WNW,303,0.0,2.2,50,0.00,,---,0.00,VWS V14.01,2013-02-02 03:50:00,
2013-02-01 22:55:00,54.3,36.1,30.27,NW,314,2.2,2.2,50,0.00,,---,0.00,VWS V14.01,2013-02-02 03:55:00,
2013-02-01 23:00:00,54.3,36.1,30.27,NW,313,2.7,3.1,50,0.00,,---,0.00,VWS V14.01,2013-02-02 04:00:00,
2013-02-01 23:05:00,54.5,36.3,30.27,NW,311,0.0,0.0,50,0.00,,---,0.00,VWS V14.01,2013-02-02 04:05:00,
2013-02-01 23:10:00,54.5,37.7,30.27,NNW,348,3.1,3.1,53,0.00,,---,0.00,VWS V14.01,2013-02-02 04:10:00,
2013-02-01 23:15:00,54.7,36.4,30.27,NNW,334,2.7,2.7,50,0.00,,---,0.00,VWS V14.01,2013-02-02 04:15:00,
2013-02-01 23:20:00,54.7,36.4,30.27,NNW,336,3.1,3.1,50,0.00,,---,0.00,VWS V14.01,2013-02-02 04:20:00,
2013-02-01 23:25:00,54.9,38.1,30.27,NNW,344,3.6,3.6,53,0.00,,---,0.00,VWS V14.01,2013-02-02 04:25:00,
2013-02-01 23:30:00,54.9,36.6,30.27,NNW,335,0.0,0.0,50,0.00,,---,0.00,VWS V14.01,2013-02-02 04:30:00,
2013-02-01 23:35:00,55.0,36.8,30.27,NNW,341,0.0,2.7,50,0.00,,---,0.00,VWS V14.01,2013-02-02 04:35:00,
2013-02-01 23:40:00,55.0,36.8,30.24,NNW,335,2.7,2.7,50,0.00,,---,0.00,VWS V14.01,2013-02-02 04:40:00,
2013-02-01 23:45:00,54.9,36.6,30.24,North,1,2.2,2.7,50,0.00,,---,0.00,VWS V14.01,2013-02-02 04:45:00,
2013-02-01 23:50:00,54.9,36.6,30.24,NNW,348,0.0,0.0,50,0.00,,---,0.00,VWS V14.01,2013-02-02 04:50:00,
2013-02-01 23:55:00,54.7,36.4,30.24,NNW,343,2.7,2.7,50,0.00,,---,0.00,VWS V14.01,2013-02-02 04:55:00,